createdAt,value
2022-12-07T00:00:01.147Z,13.00
2022-12-07T00:06:05.664Z,14.23
2022-12-07T00:12:25.667Z,13.87
2022-12-07T00:18:27.634Z,13.30
2022-12-07T00:24:29.691Z,13.10
2022-12-07T00:30:33.372Z,13.90
2022-12-07T00:36:35.297Z,13.20
2022-12-07T00:42:37.278Z,11.57
2022-12-07T00:48:39.696Z,11.90
2022-12-07T00:54:41.904Z,12.00
2022-12-07T01:00:45.808Z,11.47
2022-12-07T01:06:47.764Z,12.87
2022-12-07T01:12:49.842Z,11.73
2022-12-07T01:18:55.626Z,13.77
2022-12-07T01:24:57.514Z,12.67
2022-12-07T01:31:21.750Z,12.43
2022-12-07T01:37:26.826Z,11.37
2022-12-07T01:43:31.764Z,9.27
2022-12-07T01:49:49.815Z,8.90
2022-12-07T01:56:16.039Z,9.50
2022-12-07T02:02:59.117Z,11.63
2022-12-07T02:09:01.032Z,10.90
2022-12-07T02:15:05.733Z,10.80
2022-12-07T02:21:32.333Z,11.60
2022-12-07T02:28:04.169Z,10.00
2022-12-07T02:34:14.852Z,11.13
2022-12-07T02:40:33.936Z,12.33
2022-12-07T02:46:45.432Z,10.50
2022-12-07T02:52:49.333Z,11.03
2022-12-07T02:59:05.193Z,10.87
2022-12-07T03:05:32.982Z,10.10
2022-12-07T03:11:45.800Z,9.83
2022-12-07T03:17:50.127Z,10.93
2022-12-07T03:24:00.037Z,10.80
2022-12-07T03:30:08.972Z,11.67
2022-12-07T03:36:33.229Z,11.20
2022-12-07T03:42:35.647Z,11.53
2022-12-07T03:48:58.489Z,10.83
2022-12-07T03:55:03.388Z,11.73
2022-12-07T04:01:05.319Z,12.23
2022-12-07T04:07:07.876Z,12.30
2022-12-07T04:13:09.902Z,12.00
2022-12-07T04:19:12.313Z,11.70
2022-12-07T04:25:14.306Z,11.87
2022-12-07T04:31:16.252Z,11.77
2022-12-07T04:37:21.531Z,13.17
2022-12-07T04:43:23.437Z,13.33
2022-12-07T04:49:25.926Z,10.90
2022-12-07T04:55:27.823Z,11.07
2022-12-07T05:01:30.270Z,9.90
2022-12-07T05:07:32.181Z,11.37
2022-12-07T05:13:40.323Z,9.90
2022-12-07T05:19:42.388Z,9.60
2022-12-07T05:25:44.639Z,9.80
2022-12-07T05:31:49.533Z,9.57
2022-12-07T05:37:51.465Z,9.60
2022-12-07T05:43:53.400Z,10.80
2022-12-07T05:49:55.279Z,9.10
2022-12-07T05:55:57.208Z,10.00
2022-12-07T06:02:21.675Z,9.37
2022-12-07T06:08:23.745Z,9.30
2022-12-07T06:14:25.699Z,8.67
2022-12-07T06:20:27.602Z,7.37
2022-12-07T06:26:29.519Z,8.10
2022-12-07T06:32:31.411Z,8.43
2022-12-07T06:38:33.613Z,8.23
2022-12-07T06:44:35.521Z,9.40
2022-12-07T06:50:57.727Z,9.07
2022-12-07T06:56:59.652Z,8.40
2022-12-07T07:03:02.461Z,6.20
2022-12-07T07:09:04.671Z,6.00
2022-12-07T07:15:13.043Z,6.00
2022-12-07T07:21:15.028Z,5.40
2022-12-07T07:27:16.984Z,5.00
2022-12-07T07:33:18.948Z,5.33
2022-12-07T07:39:21.058Z,4.83
2022-12-07T07:45:28.006Z,3.90
2022-12-07T07:51:29.924Z,4.20
2022-12-07T07:57:32.338Z,4.60
2022-12-07T08:03:34.569Z,4.80
2022-12-07T08:09:49.044Z,3.67
2022-12-07T08:15:51.424Z,3.30
2022-12-07T08:21:57.337Z,5.43
2022-12-07T08:28:01.525Z,5.03
2022-12-07T08:34:03.762Z,3.83
2022-12-07T08:40:08.302Z,3.90
2022-12-07T08:46:35.985Z,4.47
2022-12-07T08:52:40.315Z,5.07
2022-12-07T08:58:43.001Z,4.20
2022-12-07T09:04:46.327Z,4.33
2022-12-07T09:10:51.479Z,4.67
2022-12-07T09:16:53.417Z,3.73
2022-12-07T09:22:55.426Z,4.10
2022-12-07T09:28:57.405Z,3.20
2022-12-07T09:34:59.288Z,4.27
2022-12-07T09:41:14.383Z,2.83
2022-12-07T09:47:16.296Z,2.63
2022-12-07T09:53:34.133Z,3.13
2022-12-07T09:59:37.566Z,6.33
2022-12-07T10:05:51.675Z,2.27
2022-12-07T10:12:13.821Z,6.77
2022-12-07T10:18:32.333Z,4.10
2022-12-07T10:24:47.669Z,3.30
2022-12-07T10:31:03.280Z,3.17
2022-12-07T10:37:28.515Z,2.87
2022-12-07T10:43:30.463Z,2.47
2022-12-07T10:50:13.489Z,5.50
2022-12-07T10:56:41.478Z,2.50
2022-12-07T11:03:06.841Z,3.00
2022-12-07T11:10:09.665Z,3.77
2022-12-07T11:16:26.833Z,3.73
2022-12-07T11:22:57.034Z,3.80
2022-12-07T11:29:38.059Z,2.83
2022-12-07T11:36:02.659Z,3.10
2022-12-07T11:42:16.173Z,2.53
2022-12-07T11:48:34.291Z,2.57
2022-12-07T11:54:44.661Z,3.93
2022-12-07T12:00:47.180Z,8.87
2022-12-07T12:06:49.107Z,16.13
2022-12-07T12:20:45.069Z,2.40
2022-12-07T12:27:06.238Z,1.97
2022-12-07T12:33:26.998Z,11.33
2022-12-07T12:39:29.214Z,2.27
2022-12-07T12:45:33.524Z,4.00
2022-12-07T12:51:42.703Z,2.30
2022-12-07T12:57:44.810Z,2.17
2022-12-07T13:03:57.469Z,2.80
2022-12-07T13:09:59.424Z,4.73
2022-12-07T13:16:10.345Z,4.53
2022-12-07T13:22:38.954Z,2.60
2022-12-07T13:28:50.871Z,4.03
2022-12-07T13:34:55.681Z,5.60
2022-12-07T13:41:29.213Z,3.27
2022-12-07T13:47:50.244Z,4.37
2022-12-07T13:54:01.462Z,4.10
2022-12-07T14:00:17.559Z,7.60
2022-12-07T14:06:29.308Z,2.30
2022-12-07T14:12:36.591Z,2.77
2022-12-07T14:18:41.876Z,2.20
2022-12-07T14:24:44.812Z,3.77
2022-12-07T14:30:46.730Z,2.97
2022-12-07T14:36:48.903Z,2.43
2022-12-07T14:43:02.449Z,3.13
2022-12-07T14:55:31.670Z,3.67
2022-12-07T15:01:34.417Z,5.40
2022-12-07T15:07:37.011Z,3.60
2022-12-07T15:13:57.465Z,4.80
2022-12-07T15:19:59.468Z,2.90
2022-12-07T15:26:01.363Z,1.90
2022-12-07T15:32:03.390Z,2.50
2022-12-07T15:38:09.205Z,3.87
2022-12-07T15:44:34.005Z,6.30
2022-12-07T15:50:36.365Z,6.87
2022-12-07T15:56:38.531Z,4.50
2022-12-07T16:02:40.540Z,9.63
2022-12-07T16:08:47.248Z,4.40
2022-12-07T16:14:49.192Z,3.30
2022-12-07T16:20:51.248Z,3.77
2022-12-07T16:26:53.258Z,3.70
2022-12-07T16:33:02.467Z,3.47
2022-12-07T16:39:06.465Z,4.23
2022-12-07T16:45:09.093Z,3.40
2022-12-07T16:51:14.074Z,3.87
2022-12-07T16:57:22.337Z,4.40
2022-12-07T17:03:25.547Z,4.90
2022-12-07T17:09:30.483Z,6.00
2022-12-07T17:15:33.522Z,6.67
2022-12-07T17:21:35.662Z,3.37
2022-12-07T17:27:38.392Z,3.90
2022-12-07T17:33:40.380Z,5.83
2022-12-07T17:39:44.129Z,6.77
2022-12-07T17:45:46.204Z,10.40
2022-12-07T17:52:08.814Z,7.30
2022-12-07T17:58:10.714Z,5.10
2022-12-07T18:04:21.998Z,8.07
2022-12-07T18:10:23.955Z,4.43
2022-12-07T18:16:29.814Z,5.07
2022-12-07T18:22:32.073Z,5.33
2022-12-07T18:28:34.100Z,4.67
2022-12-07T18:34:36.128Z,5.60
2022-12-07T18:40:39.891Z,6.37
2022-12-07T18:46:42.697Z,7.43
2022-12-07T18:52:49.040Z,5.97
2022-12-07T18:59:18.521Z,7.10
2022-12-07T19:05:21.663Z,6.13
2022-12-07T19:11:52.879Z,6.30
2022-12-07T19:17:54.965Z,6.30
2022-12-07T19:23:57.155Z,6.60
2022-12-07T19:29:59.295Z,7.20
2022-12-07T19:36:01.221Z,6.63
2022-12-07T19:42:03.959Z,7.00
2022-12-07T19:48:05.936Z,8.23
2022-12-07T19:54:10.279Z,8.33
2022-12-07T20:00:13.137Z,7.70
2022-12-07T20:06:18.694Z,6.13
2022-12-07T20:12:38.959Z,6.17
2022-12-07T20:18:40.949Z,6.20
2022-12-07T20:24:42.954Z,6.23
2022-12-07T20:30:52.961Z,6.33
2022-12-07T20:36:55.333Z,6.63
2022-12-07T20:42:57.238Z,7.50
2022-12-07T20:49:01.163Z,8.27
2022-12-07T20:55:03.405Z,8.67
2022-12-07T21:01:05.661Z,9.73
2022-12-07T21:07:16.766Z,31.10
2022-12-07T21:13:18.675Z,38.43
2022-12-07T21:19:29.935Z,22.13
2022-12-07T21:25:31.826Z,9.67
2022-12-07T21:31:34.364Z,12.20
2022-12-07T21:37:36.440Z,11.83
2022-12-07T21:43:38.458Z,11.27
2022-12-07T21:49:40.428Z,11.10
2022-12-07T21:55:44.699Z,11.83
2022-12-07T22:01:48.404Z,8.63
2022-12-07T22:07:50.439Z,10.27
2022-12-07T22:14:11.111Z,10.90
2022-12-07T22:20:13.298Z,10.80
2022-12-07T22:26:19.860Z,12.30
2022-12-07T22:38:43.060Z,11.63
2022-12-07T22:44:48.309Z,12.60
2022-12-07T22:50:52.593Z,11.20
2022-12-07T22:56:59.420Z,10.03
2022-12-07T23:03:01.419Z,11.60
2022-12-07T23:09:10.087Z,10.73
2022-12-07T23:15:12.367Z,11.17
2022-12-07T23:21:14.301Z,12.80
2022-12-07T23:27:16.192Z,11.77
2022-12-07T23:33:18.184Z,11.20
2022-12-07T23:39:20.129Z,11.17
2022-12-07T23:45:22.071Z,11.53
2022-12-07T23:51:24.605Z,10.30
2022-12-07T23:57:26.505Z,10.20
